Time;durP1;ratioP1;P1;durP2;ratioP2;P2;SDS_P1;SDS_P2;PMS_P1;PMS_P2;Temp;Humidity;BMP_temperature;BMP_pressure;BME280_temperature;BME280_humidity;BME280_pressure;Samples;Min_cycle;Max_cycle;Signal;HPM_P1;HPM_P2
2022/01/27 00:01:32;;;;;;;19.30;9.00;;;6.00;1.00;;;;;;5033766;28;20455;-74
2022/01/27 00:04:21;;;;;;;13.17;7.00;;;6.10;1.00;;;;;;5051863;28;20515;-74
2022/01/27 00:06:46;;;;;;;15.00;8.87;;;6.00;1.00;;;;;;5053996;28;20425;-74
2022/01/27 00:09:30;;;;;;;15.50;9.50;;;6.00;1.00;;;;;;5034306;28;20935;-73
2022/01/27 00:11:56;;;;;;;16.37;7.27;;;6.10;1.00;;;;;;5034078;28;20204;-74
2022/01/27 00:14:22;;;;;;;8.00;6.43;;;6.10;1.00;;;;;;5033903;28;20423;-75
2022/01/27 00:16:57;;;;;;;18.57;9.93;;;6.10;1.00;;;;;;5035813;28;20168;-75
2022/01/27 00:19:23;;;;;;;14.10;8.73;;;6.10;1.00;;;;;;5052298;28;20404;-76
2022/01/27 00:21:49;;;;;;;27.53;8.67;;;6.20;1.00;;;;;;5051896;28;20423;-73
2022/01/27 00:24:15;;;;;;;16.30;7.57;;;6.20;1.00;;;;;;5053828;28;20409;-75
2022/01/27 00:26:41;;;;;;;18.70;10.10;;;6.20;1.00;;;;;;5052006;28;20935;-76
2022/01/27 00:29:07;;;;;;;10.03;7.60;;;6.20;1.00;;;;;;5052573;28;20433;-75
2022/01/27 00:31:32;;;;;;;20.03;10.10;;;6.20;1.00;;;;;;5048287;28;20544;-75
2022/01/27 00:34:03;;;;;;;24.73;11.80;;;6.30;1.00;;;;;;5033677;28;20218;-75
2022/01/27 00:36:29;;;;;;;28.27;11.07;;;6.20;1.00;;;;;;5036622;28;20181;-75
2022/01/27 00:38:55;;;;;;;17.97;9.70;;;6.30;1.00;;;;;;5034662;28;20431;-74
2022/01/27 00:41:22;;;;;;;15.27;9.43;;;6.30;1.00;;;;;;5033640;28;20846;-74
2022/01/27 00:43:48;;;;;;;21.23;10.47;;;6.30;1.00;;;;;;5033519;28;20170;-75
2022/01/27 00:46:16;;;;;;;13.77;6.30;;;6.40;1.00;;;;;;5036594;28;20420;-75
2022/01/27 00:48:41;;;;;;;15.13;10.50;;;6.30;1.00;;;;;;5052530;28;20775;-75
2022/01/27 00:51:09;;;;;;;14.30;9.20;;;6.40;1.00;;;;;;5045767;28;20437;-74
2022/01/27 00:56:19;;;;;;;15.23;8.63;;;6.40;1.00;;;;;;5039525;28;20427;-74
2022/01/27 00:58:54;;;;;;;17.77;10.70;;;6.40;1.00;;;;;;5051658;28;20410;-75
2022/01/27 01:01:25;;;;;;;9.50;6.50;;;6.40;1.00;;;;;;5045142;28;20466;-74
2022/01/27 01:03:54;;;;;;;13.10;7.40;;;6.40;1.00;;;;;;5033278;28;20422;-74
2022/01/27 01:06:40;;;;;;;17.97;10.37;;;6.50;1.00;;;;;;5048261;28;20426;-73
2022/01/27 01:33:12;;;;;;;30.50;10.60;;;6.50;1.00;;;;;;5052773;28;20447;-74
2022/01/27 01:35:48;;;;;;;24.60;10.93;;;6.40;1.00;;;;;;5039041;28;20172;-74
2022/01/27 01:38:20;;;;;;;14.10;8.27;;;6.50;1.00;;;;;;5032814;28;20412;-73
2022/01/27 01:40:48;;;;;;;16.00;9.10;;;6.40;1.00;;;;;;5045465;28;20448;-73
2022/01/27 01:43:15;;;;;;;21.13;8.30;;;6.50;1.00;;;;;;5051708;28;20405;-73
2022/01/27 01:45:43;;;;;;;15.10;9.43;;;6.40;1.00;;;;;;5032397;28;20409;-75
2022/01/27 01:48:09;;;;;;;17.53;9.80;;;6.50;1.00;;;;;;5032655;28;20404;-75
2022/01/27 01:50:35;;;;;;;9.30;8.00;;;6.50;1.00;;;;;;5031964;28;20548;-75
2022/01/27 01:53:02;;;;;;;17.03;9.83;;;6.40;1.00;;;;;;5032684;28;20457;-74
2022/01/27 01:55:30;;;;;;;11.23;9.20;;;6.50;1.00;;;;;;5050220;28;20448;-75
2022/01/27 01:57:57;;;;;;;16.47;8.00;;;6.50;1.00;;;;;;5050543;28;20425;-74
2022/01/27 02:00:23;;;;;;;10.93;7.23;;;6.50;1.00;;;;;;5035544;28;20423;-76
2022/01/27 02:02:49;;;;;;;18.30;9.80;;;6.50;1.00;;;;;;5052812;28;20425;-75
2022/01/27 02:05:15;;;;;;;13.83;9.33;;;6.50;1.00;;;;;;5056300;28;20427;-75
2022/01/27 02:08:10;;;;;;;16.13;9.20;;;6.40;1.00;;;;;;5039612;28;20211;-75
2022/01/27 02:19:27;;;;;;;15.93;8.13;;;6.40;1.00;;;;;;5054263;28;20429;-74
2022/01/27 02:21:57;;;;;;;16.37;7.63;;;6.40;1.00;;;;;;5056217;28;20548;-74
2022/01/27 02:24:24;;;;;;;22.47;10.90;;;6.40;1.00;;;;;;5048323;28;20446;-75
2022/01/27 02:26:51;;;;;;;20.43;9.90;;;6.40;1.00;;;;;;5049312;28;20510;-74
2022/01/27 02:29:18;;;;;;;18.40;9.10;;;6.40;1.00;;;;;;5049592;28;20417;-75
2022/01/27 02:31:45;;;;;;;8.60;7.63;;;6.40;1.00;;;;;;5035806;28;20440;-75
2022/01/27 02:34:10;;;;;;;27.60;9.97;;;6.40;1.00;;;;;;5039468;28;20471;-74
2022/01/27 02:36:36;;;;;;;14.00;8.77;;;6.30;1.00;;;;;;5054217;28;20447;-76
2022/01/27 02:39:04;;;;;;;19.47;10.50;;;6.20;1.00;;;;;;5051344;28;20517;-75
2022/01/27 02:41:35;;;;;;;8.33;7.50;;;6.20;1.00;;;;;;5035530;28;20198;-76
2022/01/27 02:44:01;;;;;;;15.63;9.40;;;6.10;1.00;;;;;;5035154;28;20783;-75
2022/01/27 02:46:36;;;;;;;21.43;9.93;;;6.10;1.00;;;;;;5055370;28;20413;-74
2022/01/27 02:49:02;;;;;;;14.87;7.93;;;6.10;1.00;;;;;;5053965;28;20694;-74
2022/01/27 02:51:28;;;;;;;14.07;7.40;;;6.00;1.00;;;;;;5035637;28;20524;-74
2022/01/27 02:53:57;;;;;;;15.17;10.20;;;5.90;1.00;;;;;;5039867;28;20593;-74
2022/01/27 02:56:22;;;;;;;19.13;10.37;;;5.90;1.00;;;;;;5035594;28;20168;-75
2022/01/27 02:58:48;;;;;;;12.90;8.00;;;5.80;1.00;;;;;;5034684;28;20425;-75
2022/01/27 03:01:20;;;;;;;13.60;8.70;;;5.90;1.00;;;;;;5033721;28;20192;-77
2022/01/27 03:03:45;;;;;;;15.07;9.10;;;5.80;1.00;;;;;;5038581;28;20180;-76
2022/01/27 03:06:11;;;;;;;17.13;8.00;;;5.90;1.00;;;;;;5035396;28;20895;-75
2022/01/27 03:08:36;;;;;;;10.93;8.10;;;5.80;1.00;;;;;;5033437;28;20183;-77
2022/01/27 03:11:06;;;;;;;7.63;6.27;;;5.80;1.00;;;;;;5035116;28;20196;-74
2022/01/27 03:13:32;;;;;;;12.33;7.70;;;5.80;1.00;;;;;;5044893;28;20288;-75
2022/01/27 03:15:58;;;;;;;10.50;7.30;;;5.80;1.00;;;;;;5055207;28;20403;-76
2022/01/27 03:18:23;;;;;;;8.90;6.43;;;5.70;1.00;;;;;;5044926;28;20419;-77
2022/01/27 03:20:49;;;;;;;13.40;7.67;;;5.80;1.00;;;;;;5033830;28;20192;-76
2022/01/27 03:23:15;;;;;;;17.70;5.33;;;5.80;1.00;;;;;;5049644;28;20181;-76
2022/01/27 03:25:41;;;;;;;7.97;5.57;;;5.80;1.00;;;;;;5054211;28;20220;-74
2022/01/27 03:28:09;;;;;;;12.43;6.13;;;5.80;1.00;;;;;;5041682;28;20171;-75
2022/01/27 03:30:35;;;;;;;6.60;5.90;;;5.80;1.00;;;;;;5033928;28;20206;-77
2022/01/27 03:33:00;;;;;;;16.57;7.40;;;5.70;1.00;;;;;;5044728;28;20463;-76
2022/01/27 03:35:26;;;;;;;12.67;4.60;;;5.80;1.00;;;;;;5054456;28;20183;-75
2022/01/27 03:37:52;;;;;;;7.33;4.70;;;5.70;1.00;;;;;;5035954;28;20173;-76
2022/01/27 03:40:17;;;;;;;10.33;6.67;;;5.80;1.00;;;;;;5032511;28;20238;-76
2022/01/27 03:42:50;;;;;;;10.33;7.00;;;5.80;1.00;;;;;;5050815;28;20177;-75
2022/01/27 03:45:16;;;;;;;15.47;7.70;;;5.80;1.00;;;;;;5054640;28;20171;-73
2022/01/27 03:47:41;;;;;;;20.13;7.10;;;5.80;1.00;;;;;;5038891;28;20514;-74
2022/01/27 03:50:07;;;;;;;7.23;5.80;;;5.90;1.00;;;;;;5035218;28;20198;-75
2022/01/27 03:52:33;;;;;;;21.87;9.70;;;5.80;1.00;;;;;;5035206;28;20446;-76
2022/01/27 03:54:59;;;;;;;15.63;7.70;;;5.80;1.00;;;;;;5033892;28;20413;-76
2022/01/27 03:57:24;;;;;;;10.20;7.07;;;5.80;1.00;;;;;;5034367;28;20674;-75
2022/01/27 03:59:50;;;;;;;8.30;6.27;;;5.90;1.00;;;;;;5032182;28;20191;-76
2022/01/27 04:02:16;;;;;;;8.00;5.70;;;5.90;1.00;;;;;;5052390;28;20208;-75
2022/01/27 04:04:42;;;;;;;9.93;8.17;;;5.90;1.00;;;;;;5054242;28;20629;-75
2022/01/27 04:07:08;;;;;;;8.20;6.93;;;5.90;1.00;;;;;;5037303;28;20429;-74
2022/01/27 04:09:34;;;;;;;15.13;8.87;;;5.90;1.00;;;;;;5033000;28;20178;-76
2022/01/27 04:11:59;;;;;;;13.33;8.37;;;5.90;1.00;;;;;;5049297;28;20965;-77
2022/01/27 04:14:25;;;;;;;10.20;4.57;;;5.90;1.00;;;;;;5040290;28;20188;-74
2022/01/27 04:16:51;;;;;;;7.90;6.10;;;5.90;1.00;;;;;;5034118;28;20195;-74
2022/01/27 04:19:16;;;;;;;12.60;6.33;;;5.90;1.00;;;;;;5044307;28;20549;-76
2022/01/27 04:21:42;;;;;;;8.03;5.67;;;5.90;1.00;;;;;;5034741;28;20209;-76
2022/01/27 04:24:10;;;;;;;8.27;5.43;;;5.80;1.00;;;;;;5042200;28;20259;-76
2022/01/27 04:26:49;;;;;;;22.73;7.33;;;5.80;1.00;;;;;;5038887;28;20182;-74
2022/01/27 04:29:17;;;;;;;12.40;7.53;;;5.80;1.00;;;;;;5042704;28;20418;-76
2022/01/27 04:31:44;;;;;;;10.00;6.80;;;5.80;1.00;;;;;;5052802;28;20491;-78
2022/01/27 04:34:11;;;;;;;6.30;5.73;;;5.80;1.00;;;;;;5043495;28;20907;-74
2022/01/27 04:36:39;;;;;;;11.30;8.17;;;5.80;1.00;;;;;;5036818;28;20424;-76
2022/01/27 04:41:58;;;;;;;12.80;7.20;;;5.80;1.00;;;;;;5037175;28;20978;-77
2022/01/27 04:49:25;;;;;;;6.73;5.30;;;5.80;1.00;;;;;;5052150;28;20188;-77
2022/01/27 04:51:51;;;;;;;7.97;4.57;;;5.80;1.00;;;;;;5033866;28;20449;-77
2022/01/27 04:56:43;;;;;;;10.00;6.30;;;5.80;1.00;;;;;;5053495;28;20513;-77
2022/01/27 04:59:23;;;;;;;23.70;5.53;;;5.80;1.00;;;;;;5042210;28;20646;-73
2022/01/27 05:01:54;;;;;;;6.30;4.93;;;5.80;1.00;;;;;;5033130;28;20926;-73
2022/01/27 05:04:22;;;;;;;7.73;5.27;;;5.80;1.00;;;;;;5043593;28;20906;-77
2022/01/27 05:06:49;;;;;;;8.37;5.70;;;5.80;1.00;;;;;;5052060;28;20500;-75
2022/01/27 05:09:15;;;;;;;9.83;5.20;;;5.70;1.00;;;;;;5050062;28;20433;-74
2022/01/27 05:11:49;;;;;;;11.50;5.50;;;5.70;1.00;;;;;;5052831;28;20414;-72
2022/01/27 05:14:22;;;;;;;5.77;4.80;;;5.70;1.00;;;;;;5043832;28;20457;-75
2022/01/27 05:16:48;;;;;;;14.40;6.23;;;5.70;1.00;;;;;;5033042;28;20402;-73
2022/01/27 05:19:15;;;;;;;4.93;4.13;;;5.80;1.00;;;;;;5040044;28;20917;-74
2022/01/27 05:21:41;;;;;;;8.30;4.83;;;5.80;1.00;;;;;;5052954;28;20425;-73
2022/01/27 05:24:07;;;;;;;6.73;5.87;;;5.70;1.00;;;;;;5044387;28;20422;-75
2022/01/27 05:26:34;;;;;;;12.77;6.80;;;5.70;1.00;;;;;;5033040;28;20441;-72
2022/01/27 05:29:03;;;;;;;7.40;5.77;;;5.80;1.00;;;;;;5031583;28;20918;-73
2022/01/27 05:31:29;;;;;;;6.63;4.53;;;5.80;1.00;;;;;;5033098;28;20434;-72
2022/01/27 05:33:54;;;;;;;5.20;4.73;;;5.80;1.00;;;;;;5044839;28;20466;-75
2022/01/27 05:36:20;;;;;;;9.70;6.50;;;5.80;1.00;;;;;;5056888;28;20194;-73
2022/01/27 05:38:46;;;;;;;5.70;5.20;;;5.80;1.00;;;;;;5048415;28;20206;-74
2022/01/27 05:41:14;;;;;;;10.20;5.20;;;5.80;1.00;;;;;;5035989;28;20191;-73
2022/01/27 05:43:40;;;;;;;9.47;6.20;;;5.70;2.80;;;;;;5049691;28;20931;-73
2022/01/27 05:46:06;;;;;;;7.30;5.17;;;5.80;5.40;;;;;;5056164;28;20413;-75
2022/01/27 05:48:31;;;;;;;6.37;4.50;;;5.80;5.80;;;;;;5044191;28;20431;-73
2022/01/27 05:50:57;;;;;;;8.73;5.40;;;5.80;11.30;;;;;;5035426;28;20203;-74
2022/01/27 05:53:24;;;;;;;4.97;4.33;;;5.80;11.50;;;;;;5037822;28;20211;-72
2022/01/27 05:55:50;;;;;;;8.60;5.73;;;5.80;16.90;;;;;;5036774;28;20512;-74
2022/01/27 05:58:16;;;;;;;8.20;4.70;;;5.80;18.60;;;;;;5054050;28;20418;-76
2022/01/27 06:00:41;;;;;;;11.10;5.67;;;5.90;23.30;;;;;;5035548;28;20195;-74
2022/01/27 06:03:07;;;;;;;16.27;6.67;;;5.90;25.50;;;;;;5051213;28;20437;-72
2022/01/27 06:05:33;;;;;;;6.00;4.80;;;5.90;28.50;;;;;;5056404;28;20266;-71
2022/01/27 06:07:59;;;;;;;8.50;4.80;;;5.90;29.00;;;;;;5041362;28;20180;-72
2022/01/27 06:10:25;;;;;;;6.93;6.33;;;5.90;29.10;;;;;;5034029;28;20439;-71
2022/01/27 06:12:53;;;;;;;6.40;5.30;;;5.90;30.00;;;;;;5047617;28;20520;-73
2022/01/27 06:15:23;;;;;;;4.60;4.20;;;5.90;31.40;;;;;;5036519;28;20408;-73
2022/01/27 06:17:49;;;;;;;11.20;5.57;;;5.90;34.00;;;;;;5035045;28;20415;-73
2022/01/27 06:20:16;;;;;;;7.03;5.37;;;6.00;37.60;;;;;;5039381;28;20476;-74
2022/01/27 06:22:42;;;;;;;10.63;6.70;;;6.00;38.30;;;;;;5035916;28;20409;-73
2022/01/27 06:25:09;;;;;;;14.77;6.10;;;6.00;38.50;;;;;;5050883;28;20853;-73
2022/01/27 06:27:35;;;;;;;10.20;5.73;;;6.00;39.50;;;;;;5040641;28;20175;-73
2022/01/27 06:30:00;;;;;;;9.20;5.00;;;6.00;40.40;;;;;;5034203;28;20411;-75
2022/01/27 06:32:26;;;;;;;14.23;7.00;;;6.10;40.70;;;;;;5048982;28;20197;-75
2022/01/27 06:34:51;;;;;;;10.63;5.27;;;6.10;40.90;;;;;;5055826;28;20175;-75
2022/01/27 06:37:17;;;;;;;6.23;5.60;;;6.10;43.60;;;;;;5043549;28;20184;-75
2022/01/27 06:39:43;;;;;;;4.83;4.37;;;6.10;43.00;;;;;;5034979;28;20167;-74
2022/01/27 06:42:08;;;;;;;7.93;5.07;;;6.20;43.20;;;;;;5045284;28;20204;-73
2022/01/27 06:44:34;;;;;;;8.13;5.20;;;6.20;43.20;;;;;;5055960;28;20539;-74
2022/01/27 06:47:00;;;;;;;10.33;5.60;;;6.20;43.20;;;;;;5047259;28;20261;-71
2022/01/27 06:49:26;;;;;;;8.20;5.87;;;6.20;41.20;;;;;;5034719;28;20509;-76
2022/01/27 06:51:52;;;;;;;10.37;6.90;;;6.30;43.20;;;;;;5041654;28;20852;-73
2022/01/27 06:54:18;;;;;;;15.17;6.90;;;6.30;43.40;;;;;;5054246;28;20651;-72
2022/01/27 06:56:44;;;;;;;13.27;9.27;;;6.30;42.20;;;;;;5041844;28;20256;-74
2022/01/27 06:59:10;;;;;;;14.03;7.87;;;6.30;41.90;;;;;;5034746;28;20409;-74
2022/01/27 07:01:36;;;;;;;13.07;7.90;;;6.30;43.40;;;;;;5046346;28;20451;-73
2022/01/27 07:04:02;;;;;;;9.87;6.47;;;6.30;43.40;;;;;;5055533;28;20170;-73
2022/01/27 07:06:28;;;;;;;7.30;5.63;;;6.30;43.40;;;;;;5052852;28;20435;-73
2022/01/27 07:08:54;;;;;;;8.03;6.07;;;6.30;43.40;;;;;;5054341;28;20393;-72
2022/01/27 07:11:19;;;;;;;6.47;5.80;;;6.30;43.40;;;;;;5043512;28;20457;-71
2022/01/27 07:13:45;;;;;;;11.50;7.33;;;6.40;43.50;;;;;;5035212;28;20286;-74
2022/01/27 07:16:11;;;;;;;13.00;7.67;;;6.40;44.80;;;;;;5044304;28;20627;-74
2022/01/27 07:18:37;;;;;;;5.70;5.07;;;6.50;43.60;;;;;;5053898;28;20181;-73
2022/01/27 07:21:03;;;;;;;15.43;7.67;;;6.50;43.60;;;;;;5045543;28;20494;-74
2022/01/27 07:23:29;;;;;;;14.70;8.10;;;6.50;43.70;;;;;;5035159;28;20203;-74
2022/01/27 07:25:55;;;;;;;20.30;7.50;;;6.50;43.60;;;;;;5046957;28;20460;-74
2022/01/27 07:28:21;;;;;;;11.03;6.47;;;6.60;44.70;;;;;;5054860;28;20167;-77
2022/01/27 07:30:46;;;;;;;10.23;6.03;;;6.60;43.90;;;;;;5043416;28;20549;-75
2022/01/27 07:33:12;;;;;;;10.80;6.50;;;6.60;43.70;;;;;;5034275;28;20206;-75
2022/01/27 07:35:38;;;;;;;9.40;6.83;;;6.60;43.60;;;;;;5042101;28;20190;-74
2022/01/27 07:38:05;;;;;;;11.97;7.23;;;6.60;43.40;;;;;;5054898;28;20241;-75
2022/01/27 07:40:31;;;;;;;7.13;5.40;;;6.60;41.90;;;;;;5046595;28;20179;-74
2022/01/27 07:42:56;;;;;;;9.57;5.37;;;6.60;43.40;;;;;;5033696;28;20985;-77
2022/01/27 07:45:22;;;;;;;8.30;6.17;;;6.60;40.90;;;;;;5039684;28;20206;-76
2022/01/27 07:47:48;;;;;;;8.57;5.17;;;6.60;41.80;;;;;;5053441;28;20688;-74
2022/01/27 07:50:13;;;;;;;5.30;4.80;;;6.70;41.40;;;;;;5048927;28;20686;-73
2022/01/27 07:52:41;;;;;;;5.90;4.70;;;6.70;40.60;;;;;;5034574;28;20648;-75
2022/01/27 07:55:10;;;;;;;11.83;5.77;;;6.70;40.10;;;;;;5044009;28;20170;-75
2022/01/27 07:57:36;;;;;;;9.77;6.40;;;6.70;36.90;;;;;;5054299;28;20408;-74
2022/01/27 08:00:04;;;;;;;12.60;5.30;;;6.70;36.90;;;;;;5042897;28;20445;-74
2022/01/27 08:02:30;;;;;;;10.57;6.33;;;6.70;36.30;;;;;;5034282;28;20505;-75
2022/01/27 08:04:55;;;;;;;6.77;5.40;;;6.70;36.70;;;;;;5032983;28;20485;-74
2022/01/27 08:07:21;;;;;;;12.60;6.40;;;6.80;36.70;;;;;;5032988;28;20178;-74
2022/01/27 08:09:48;;;;;;;9.23;5.93;;;6.70;37.40;;;;;;5032766;28;20184;-75
2022/01/27 08:12:14;;;;;;;16.17;7.70;;;6.80;36.80;;;;;;5033925;28;20187;-75
2022/01/27 08:14:40;;;;;;;8.10;6.47;;;6.80;36.80;;;;;;5034217;28;20398;-75
2022/01/27 08:17:05;;;;;;;8.73;7.47;;;6.80;38.00;;;;;;5033063;28;20449;-74
2022/01/27 08:19:31;;;;;;;11.40;6.80;;;6.80;37.10;;;;;;5032959;28;20895;-75
2022/01/27 08:21:57;;;;;;;24.13;8.70;;;6.80;38.70;;;;;;5033959;28;20278;-75
2022/01/27 08:24:22;;;;;;;11.13;7.53;;;6.90;40.00;;;;;;5033970;28;20198;-74
2022/01/27 08:26:50;;;;;;;20.37;7.83;;;6.90;38.40;;;;;;5033245;28;20178;-75
2022/01/27 08:29:27;;;;;;;12.97;8.20;;;6.90;38.40;;;;;;5033236;28;20161;-74
2022/01/27 08:34:28;;;;;;;7.90;5.80;;;7.00;40.40;;;;;;5033700;28;20403;-75
2022/01/27 08:36:54;;;;;;;17.10;6.70;;;7.10;41.10;;;;;;5033726;28;20621;-74
2022/01/27 08:39:19;;;;;;;10.20;6.50;;;7.00;39.90;;;;;;5032737;28;20406;-74
2022/01/27 08:41:45;;;;;;;16.27;8.67;;;7.10;41.00;;;;;;5032157;28;20442;-74
2022/01/27 08:44:11;;;;;;;17.33;7.17;;;7.10;41.50;;;;;;5033557;28;20175;-74
2022/01/27 08:46:37;;;;;;;20.00;6.37;;;7.20;41.80;;;;;;5033030;28;20171;-73
2022/01/27 08:49:04;;;;;;;16.03;7.30;;;7.20;42.40;;;;;;5032604;28;20187;-74
2022/01/27 08:51:30;;;;;;;19.23;7.10;;;7.20;42.50;;;;;;5033303;28;20262;-74
2022/01/27 08:53:56;;;;;;;9.63;5.23;;;7.20;40.70;;;;;;5033406;28;20449;-73
2022/01/27 08:56:22;;;;;;;8.83;4.50;;;7.30;40.50;;;;;;5033469;28;20395;-76
2022/01/27 08:58:48;;;;;;;14.23;5.70;;;7.30;40.30;;;;;;5031148;28;20979;-74
2022/01/27 09:01:14;;;;;;;13.50;5.67;;;7.30;39.80;;;;;;5033299;28;20414;-74
2022/01/27 09:03:39;;;;;;;12.30;5.10;;;7.30;40.30;;;;;;5033247;28;20687;-74
2022/01/27 09:06:05;;;;;;;14.53;6.17;;;7.40;40.40;;;;;;5032253;28;20536;-75
2022/01/27 09:08:31;;;;;;;9.87;4.67;;;7.40;37.40;;;;;;5030703;28;20270;-78
2022/01/27 09:10:56;;;;;;;13.87;6.33;;;7.40;32.20;;;;;;5033077;28;20278;-74
2022/01/27 09:13:22;;;;;;;10.60;4.73;;;7.50;31.60;;;;;;5033121;28;20187;-75
2022/01/27 09:15:49;;;;;;;5.47;3.87;;;7.50;24.60;;;;;;5033081;28;20627;-74
2022/01/27 09:18:15;;;;;;;10.90;3.63;;;7.60;22.00;;;;;;5033104;28;20184;-74
2022/01/27 09:20:42;;;;;;;6.93;4.80;;;7.60;13.00;;;;;;5032149;28;20410;-75
2022/01/27 09:23:13;;;;;;;9.60;5.40;;;7.60;2.00;;;;;;5031837;28;20438;-74
2022/01/27 09:25:45;;;;;;;6.60;4.17;;;7.60;1.00;;;;;;5032410;28;20406;-74
2022/01/27 09:28:12;;;;;;;6.27;4.53;;;7.70;1.00;;;;;;5031650;28;20824;-74
2022/01/27 09:30:39;;;;;;;27.67;5.97;;;7.70;1.00;;;;;;5032136;28;20430;-74
2022/01/27 09:33:05;;;;;;;12.30;5.00;;;7.70;1.00;;;;;;5031557;28;20450;-73
2022/01/27 09:35:31;;;;;;;8.63;3.83;;;7.70;1.00;;;;;;5032718;28;20394;-75
2022/01/27 09:37:58;;;;;;;12.00;4.30;;;7.80;1.00;;;;;;5032708;28;20947;-74
2022/01/27 09:40:25;;;;;;;26.53;5.17;;;7.80;1.00;;;;;;5035428;28;20510;-75
2022/01/27 09:42:53;;;;;;;9.70;4.07;;;7.90;1.00;;;;;;5046176;28;20450;-74
2022/01/27 09:45:20;;;;;;;9.37;5.40;;;8.00;1.00;;;;;;5041513;28;20418;-73
2022/01/27 09:47:54;;;;;;;13.90;5.87;;;8.00;1.00;;;;;;5032384;28;20438;-74
2022/01/27 09:53:13;;;;;;;11.73;4.47;;;8.10;1.00;;;;;;5030263;28;20503;-75
2022/01/27 09:55:39;;;;;;;6.17;4.43;;;8.10;1.00;;;;;;5048176;28;20421;-75
2022/01/27 09:58:06;;;;;;;9.10;4.13;;;8.10;1.00;;;;;;5038389;28;20808;-73
2022/01/27 10:00:32;;;;;;;12.30;3.70;;;8.10;1.00;;;;;;5030723;28;20438;-74
2022/01/27 10:03:17;;;;;;;19.13;4.53;;;8.20;1.00;;;;;;5032614;28;20913;-75
2022/01/27 10:05:44;;;;;;;8.50;4.10;;;8.10;1.00;;;;;;5036412;28;20693;-75
2022/01/27 10:08:15;;;;;;;30.27;5.60;;;8.10;1.00;;;;;;5046005;28;20409;-75
2022/01/27 10:10:43;;;;;;;16.63;6.70;;;8.20;1.00;;;;;;5040762;28;21062;-73
2022/01/27 10:13:11;;;;;;;8.40;4.80;;;8.10;1.00;;;;;;5032358;28;20481;-75
2022/01/27 10:15:42;;;;;;;11.50;4.00;;;8.20;1.00;;;;;;5045513;28;20397;-75
2022/01/27 10:18:07;;;;;;;13.73;5.67;;;8.20;1.00;;;;;;5053441;28;20393;-77
2022/01/27 10:20:40;;;;;;;9.10;3.50;;;8.20;1.00;;;;;;5053730;28;20450;-75
2022/01/27 10:23:26;;;;;;;7.00;2.90;;;8.20;1.00;;;;;;5042547;28;20180;-75
2022/01/27 10:25:58;;;;;;;15.20;4.73;;;8.20;1.00;;;;;;5035667;28;20421;-75
2022/01/27 10:28:29;;;;;;;18.77;4.90;;;8.30;1.00;;;;;;5041542;28;20449;-75
2022/01/27 10:31:11;;;;;;;11.33;2.77;;;8.40;1.00;;;;;;5034561;28;20421;-74
2022/01/27 10:33:57;;;;;;;19.50;3.67;;;8.40;1.00;;;;;;5035169;28;20449;-76
2022/01/27 10:36:36;;;;;;;16.70;4.20;;;8.50;1.00;;;;;;5035265;28;20403;-75
2022/01/27 10:39:15;;;;;;;11.03;3.33;;;8.60;1.00;;;;;;5033902;28;20471;-75
2022/01/27 10:41:56;;;;;;;9.47;3.87;;;8.70;1.00;;;;;;5054251;28;20422;-74
2022/01/27 10:44:23;;;;;;;18.13;4.63;;;8.70;1.00;;;;;;5067386;28;20409;-75
2022/01/27 10:47:10;;;;;;;25.60;5.50;;;8.70;1.00;;;;;;5040087;28;20422;-76
2022/01/27 10:49:41;;;;;;;17.17;4.13;;;8.70;1.00;;;;;;5033965;28;20469;-76
2022/01/27 10:52:13;;;;;;;18.50;4.10;;;8.70;1.00;;;;;;5035251;28;20442;-75
2022/01/27 10:54:42;;;;;;;12.87;4.20;;;8.70;1.00;;;;;;5034595;28;20976;-75
2022/01/27 10:57:12;;;;;;;20.63;5.30;;;8.70;1.00;;;;;;5035612;28;20408;-76
2022/01/27 10:59:39;;;;;;;13.37;4.40;;;8.60;1.00;;;;;;5034551;28;20414;-76
2022/01/27 11:02:10;;;;;;;5.80;3.10;;;8.60;1.00;;;;;;5035847;28;20446;-75
2022/01/27 11:04:41;;;;;;;5.73;3.30;;;8.60;1.00;;;;;;5035278;28;21026;-74
2022/01/27 11:07:15;;;;;;;13.40;4.17;;;8.50;1.00;;;;;;5035749;28;20410;-74
2022/01/27 11:09:43;;;;;;;16.80;3.70;;;8.60;1.00;;;;;;5035983;28;20536;-77
2022/01/27 11:12:13;;;;;;;26.53;3.60;;;8.70;1.00;;;;;;5034366;28;20468;-75
2022/01/27 11:14:40;;;;;;;8.27;3.83;;;8.60;1.00;;;;;;5038193;28;20556;-76
2022/01/27 11:17:10;;;;;;;12.03;5.43;;;8.60;1.00;;;;;;5035207;28;20839;-76
2022/01/27 11:20:00;;;;;;;11.63;3.37;;;8.60;1.00;;;;;;5039012;28;20489;-75
2022/01/27 11:22:41;;;;;;;13.93;3.40;;;8.50;1.00;;;;;;5054824;28;20421;-73
2022/01/27 11:25:49;;;;;;;6.77;2.87;;;8.50;1.00;;;;;;5044763;28;20425;-73
2022/01/27 11:27:58;;;;;;;9.40;3.13;;;8.60;1.00;;;;;;5034855;28;20434;-76
2022/01/27 11:30:59;;;;;;;9.40;2.90;;;8.60;1.00;;;;;;5042590;28;20445;-76
2022/01/27 11:33:32;;;;;;;9.23;3.37;;;8.60;1.00;;;;;;5031441;28;20465;-76
2022/01/27 11:36:12;;;;;;;11.03;3.40;;;8.60;1.00;;;;;;5048970;28;20520;-75
2022/01/27 11:38:43;;;;;;;7.73;3.37;;;8.50;1.00;;;;;;5034056;28;20417;-76
2022/01/27 11:41:34;;;;;;;13.53;3.63;;;8.60;1.00;;;;;;5034222;28;20504;-75
2022/01/27 11:44:25;;;;;;;10.13;4.40;;;8.60;1.00;;;;;;5033589;28;20417;-73
2022/01/27 11:47:09;;;;;;;16.00;3.20;;;8.70;1.00;;;;;;5034541;28;20792;-76
2022/01/27 11:50:22;;;;;;;10.93;3.60;;;8.80;1.00;;;;;;5059355;28;20503;-75
2022/01/27 11:52:51;;;;;;;19.53;3.77;;;8.90;1.00;;;;;;5033434;28;20450;-76
2022/01/27 11:55:26;;;;;;;12.53;3.07;;;8.90;1.00;;;;;;5052693;28;20456;-73
2022/01/27 11:57:55;;;;;;;5.40;3.07;;;8.90;1.00;;;;;;5035759;28;20449;-75
2022/01/27 12:00:24;;;;;;;16.43;3.30;;;9.00;1.00;;;;;;5043396;28;20934;-74
2022/01/27 12:03:02;;;;;;;13.33;4.50;;;9.00;1.00;;;;;;5052991;28;20418;-75
2022/01/27 12:05:30;;;;;;;11.23;4.60;;;9.00;1.00;;;;;;5043094;28;20430;-75
2022/01/27 12:08:25;;;;;;;11.83;3.90;;;9.00;1.00;;;;;;5033982;28;20406;-76
2022/01/27 12:10:59;;;;;;;11.63;3.50;;;8.80;1.00;;;;;;5045480;28;20453;-75
2022/01/27 12:13:49;;;;;;;11.63;4.20;;;8.80;1.00;;;;;;5052695;28;20546;-73
2022/01/27 12:19:10;;;;;;;15.87;3.63;;;8.70;1.00;;;;;;5033082;28;20413;-75
2022/01/27 12:21:49;;;;;;;8.83;3.60;;;8.70;1.00;;;;;;5033164;28;20454;-75
2022/01/27 12:24:28;;;;;;;16.80;3.80;;;8.70;1.00;;;;;;5035897;28;20409;-72
2022/01/27 12:26:55;;;;;;;8.60;2.50;;;8.70;1.00;;;;;;5052900;28;20445;-72
2022/01/27 12:29:34;;;;;;;6.97;2.73;;;8.70;1.00;;;;;;5050024;28;20426;-74
2022/01/27 12:32:09;;;;;;;10.80;2.90;;;8.60;1.00;;;;;;5033640;28;20476;-72
2022/01/27 12:34:37;;;;;;;8.53;3.27;;;8.60;1.00;;;;;;5037355;28;20417;-73
2022/01/27 12:37:06;;;;;;;17.53;5.77;;;8.60;99.90;;;;;;5053689;28;20951;-76
2022/01/27 12:39:43;;;;;;;16.67;4.00;;;8.70;99.90;;;;;;5049629;28;20877;-76
2022/01/27 12:42:14;;;;;;;14.30;3.97;;;8.80;99.90;;;;;;5033463;28;20422;-73
2022/01/27 12:44:43;;;;;;;12.37;3.80;;;8.80;99.90;;;;;;5035845;28;20420;-75
2022/01/27 12:47:15;;;;;;;7.83;4.27;;;8.80;99.90;;;;;;5053485;28;20480;-76
2022/01/27 12:49:43;;;;;;;9.33;2.63;;;8.80;99.90;;;;;;5047922;28;20465;-75
2022/01/27 12:52:12;;;;;;;6.07;2.10;;;8.80;99.90;;;;;;5033544;28;20903;-75
2022/01/27 12:54:39;;;;;;;12.43;3.63;;;8.90;99.90;;;;;;5035235;28;20489;-76
2022/01/27 12:57:06;;;;;;;7.50;2.43;;;8.90;99.90;;;;;;5053317;28;20395;-73
2022/01/27 12:59:35;;;;;;;14.17;3.83;;;8.80;99.90;;;;;;5051466;28;20401;-76
2022/01/27 13:02:04;;;;;;;10.10;4.13;;;8.80;99.90;;;;;;5033258;28;20934;-73
2022/01/27 13:04:30;;;;;;;7.73;2.90;;;8.70;99.90;;;;;;5035584;28;20432;-74
2022/01/27 13:06:57;;;;;;;5.80;2.97;;;8.70;99.90;;;;;;5033253;28;20414;-74
2022/01/27 13:09:25;;;;;;;5.17;2.13;;;8.60;99.90;;;;;;5034307;28;20398;-75
2022/01/27 13:11:54;;;;;;;11.53;2.83;;;8.60;99.90;;;;;;5053035;28;20439;-74
2022/01/27 13:14:19;;;;;;;3.80;1.97;;;8.60;99.90;;;;;;5051693;28;20452;-74
2022/01/27 13:16:53;;;;;;;8.80;2.40;;;8.60;99.90;;;;;;5033237;28;20946;-73
2022/01/27 13:19:30;;;;;;;15.47;4.23;;;8.50;99.90;;;;;;5032468;28;20434;-77
2022/01/27 13:22:04;;;;;;;7.57;2.47;;;8.40;99.90;;;;;;5052643;28;20429;-74
2022/01/27 13:24:33;;;;;;;11.50;2.80;;;8.30;99.90;;;;;;5050718;28;20492;-73
2022/01/27 13:27:09;;;;;;;13.67;4.70;;;8.30;99.90;;;;;;5031954;28;20517;-71
2022/01/27 13:29:43;;;;;;;8.23;2.60;;;8.20;99.90;;;;;;5033471;28;20410;-76
2022/01/27 13:32:10;;;;;;;7.93;2.23;;;8.20;99.90;;;;;;5052745;28;20432;-74
2022/01/27 13:34:47;;;;;;;17.70;3.23;;;8.30;99.90;;;;;;5051505;28;20446;-74
2022/01/27 13:37:13;;;;;;;4.00;2.63;;;8.30;99.90;;;;;;5032918;28;20426;-72
2022/01/27 13:42:17;;;;;;;2.63;2.17;;;8.40;99.90;;;;;;5051897;28;20417;-76
2022/01/27 13:45:00;;;;;;;9.90;3.27;;;8.30;99.90;;;;;;5051635;28;20467;-73
2022/01/27 13:47:27;;;;;;;7.53;2.30;;;8.40;99.90;;;;;;5033027;28;20625;-77
2022/01/27 13:50:03;;;;;;;6.40;2.40;;;8.30;99.90;;;;;;5034919;28;20428;-77
2022/01/27 13:52:39;;;;;;;2.70;2.30;;;8.40;99.90;;;;;;5032940;28;20456;-71
2022/01/27 13:55:10;;;;;;;5.40;2.40;;;8.40;99.90;;;;;;5035630;28;20425;-73
2022/01/27 13:57:36;;;;;;;7.93;2.57;;;8.30;99.90;;;;;;5035691;28;20737;-72
2022/01/27 14:00:10;;;;;;;9.53;3.07;;;8.20;99.90;;;;;;5040344;28;20428;-72
2022/01/27 14:02:40;;;;;;;11.40;3.03;;;8.20;99.90;;;;;;5056633;28;20420;-77
2022/01/27 14:05:14;;;;;;;6.53;2.50;;;8.10;99.90;;;;;;5054764;28;20940;-72